sensor_id;sensor_type;location;lat;lon;timestamp;P1;durP1;ratioP1;P2;durP2;ratioP2
16330;SDS011;8275;48.206;16.340;2023-07-30T00:01:39;1.80;;;1.70;;
16330;SDS011;8275;48.206;16.340;2023-07-30T00:04:08;2.05;;;1.75;;
16330;SDS011;8275;48.206;16.340;2023-07-30T00:06:37;4.63;;;2.22;;
16330;SDS011;8275;48.206;16.340;2023-07-30T00:09:05;2.30;;;2.10;;
16330;SDS011;8275;48.206;16.340;2023-07-30T00:11:34;1.80;;;1.70;;
16330;SDS011;8275;48.206;16.340;2023-07-30T00:14:04;2.22;;;1.88;;
16330;SDS011;8275;48.206;16.340;2023-07-30T00:16:33;2.38;;;1.77;;
16330;SDS011;8275;48.206;16.340;2023-07-30T00:19:01;2.17;;;1.80;;
16330;SDS011;8275;48.206;16.340;2023-07-30T00:21:30;2.28;;;2.15;;
16330;SDS011;8275;48.206;16.340;2023-07-30T00:23:58;3.05;;;2.03;;
16330;SDS011;8275;48.206;16.340;2023-07-30T00:26:27;2.00;;;1.90;;
16330;SDS011;8275;48.206;16.340;2023-07-30T00:28:56;1.92;;;1.77;;
16330;SDS011;8275;48.206;16.340;2023-07-30T00:31:26;2.10;;;2.00;;
16330;SDS011;8275;48.206;16.340;2023-07-30T00:33:54;1.88;;;1.77;;
16330;SDS011;8275;48.206;16.340;2023-07-30T00:36:23;2.08;;;1.98;;
16330;SDS011;8275;48.206;16.340;2023-07-30T00:38:51;2.28;;;2.05;;
16330;SDS011;8275;48.206;16.340;2023-07-30T00:41:20;3.13;;;1.90;;
16330;SDS011;8275;48.206;16.340;2023-07-30T00:43:48;2.03;;;1.92;;
16330;SDS011;8275;48.206;16.340;2023-07-30T00:46:17;2.08;;;1.92;;
16330;SDS011;8275;48.206;16.340;2023-07-30T00:48:47;3.25;;;2.08;;
16330;SDS011;8275;48.206;16.340;2023-07-30T00:51:17;1.98;;;1.88;;
16330;SDS011;8275;48.206;16.340;2023-07-30T00:53:47;1.67;;;1.58;;
16330;SDS011;8275;48.206;16.340;2023-07-30T00:56:16;2.10;;;1.90;;
16330;SDS011;8275;48.206;16.340;2023-07-30T00:58:44;2.03;;;1.90;;
16330;SDS011;8275;48.206;16.340;2023-07-30T01:01:16;2.03;;;1.92;;
16330;SDS011;8275;48.206;16.340;2023-07-30T01:03:47;1.67;;;1.58;;
16330;SDS011;8275;48.206;16.340;2023-07-30T01:06:16;1.73;;;1.63;;
16330;SDS011;8275;48.206;16.340;2023-07-30T01:08:46;1.80;;;1.67;;
16330;SDS011;8275;48.206;16.340;2023-07-30T01:11:15;2.10;;;1.95;;
16330;SDS011;8275;48.206;16.340;2023-07-30T01:13:45;3.42;;;1.60;;
16330;SDS011;8275;48.206;16.340;2023-07-30T01:16:14;2.08;;;1.88;;
16330;SDS011;8275;48.206;16.340;2023-07-30T01:18:42;2.60;;;1.90;;
16330;SDS011;8275;48.206;16.340;2023-07-30T01:21:13;1.50;;;1.40;;
16330;SDS011;8275;48.206;16.340;2023-07-30T01:23:41;1.70;;;1.60;;
16330;SDS011;8275;48.206;16.340;2023-07-30T01:26:10;2.08;;;1.63;;
16330;SDS011;8275;48.206;16.340;2023-07-30T01:28:48;2.03;;;1.83;;
16330;SDS011;8275;48.206;16.340;2023-07-30T01:31:19;2.10;;;1.90;;
16330;SDS011;8275;48.206;16.340;2023-07-30T01:33:51;2.40;;;1.83;;
16330;SDS011;8275;48.206;16.340;2023-07-30T01:36:24;1.92;;;1.80;;
16330;SDS011;8275;48.206;16.340;2023-07-30T01:38:54;1.60;;;1.50;;
16330;SDS011;8275;48.206;16.340;2023-07-30T01:41:24;2.10;;;1.98;;
16330;SDS011;8275;48.206;16.340;2023-07-30T01:43:53;1.77;;;1.67;;
16330;SDS011;8275;48.206;16.340;2023-07-30T01:46:22;2.53;;;1.70;;
16330;SDS011;8275;48.206;16.340;2023-07-30T01:48:51;1.80;;;1.70;;
16330;SDS011;8275;48.206;16.340;2023-07-30T01:51:19;1.85;;;1.75;;
16330;SDS011;8275;48.206;16.340;2023-07-30T01:53:49;2.22;;;2.05;;
16330;SDS011;8275;48.206;16.340;2023-07-30T01:56:18;2.42;;;2.17;;
16330;SDS011;8275;48.206;16.340;2023-07-30T01:58:46;2.88;;;2.20;;
16330;SDS011;8275;48.206;16.340;2023-07-30T02:01:15;2.17;;;1.98;;
16330;SDS011;8275;48.206;16.340;2023-07-30T02:03:44;2.38;;;2.17;;
16330;SDS011;8275;48.206;16.340;2023-07-30T02:06:12;1.70;;;1.60;;
16330;SDS011;8275;48.206;16.340;2023-07-30T02:08:41;2.65;;;2.45;;
16330;SDS011;8275;48.206;16.340;2023-07-30T02:11:11;2.50;;;1.85;;
16330;SDS011;8275;48.206;16.340;2023-07-30T02:13:39;1.85;;;1.75;;
16330;SDS011;8275;48.206;16.340;2023-07-30T02:16:08;2.08;;;1.90;;
16330;SDS011;8275;48.206;16.340;2023-07-30T02:18:37;1.88;;;1.77;;
16330;SDS011;8275;48.206;16.340;2023-07-30T02:21:05;2.88;;;2.10;;
16330;SDS011;8275;48.206;16.340;2023-07-30T02:23:34;2.30;;;1.50;;
16330;SDS011;8275;48.206;16.340;2023-07-30T02:26:03;1.65;;;1.55;;
16330;SDS011;8275;48.206;16.340;2023-07-30T02:28:33;2.22;;;1.60;;
16330;SDS011;8275;48.206;16.340;2023-07-30T02:31:01;1.70;;;1.60;;
16330;SDS011;8275;48.206;16.340;2023-07-30T02:33:30;1.73;;;1.63;;
16330;SDS011;8275;48.206;16.340;2023-07-30T02:35:58;4.88;;;1.90;;
16330;SDS011;8275;48.206;16.340;2023-07-30T02:38:27;1.83;;;1.70;;
16330;SDS011;8275;48.206;16.340;2023-07-30T02:40:55;2.38;;;1.90;;
16330;SDS011;8275;48.206;16.340;2023-07-30T02:43:24;2.10;;;2.00;;
16330;SDS011;8275;48.206;16.340;2023-07-30T02:45:54;2.10;;;1.95;;
16330;SDS011;8275;48.206;16.340;2023-07-30T02:48:22;2.35;;;2.15;;
16330;SDS011;8275;48.206;16.340;2023-07-30T02:50:51;2.40;;;1.52;;
16330;SDS011;8275;48.206;16.340;2023-07-30T02:53:19;1.83;;;1.73;;
16330;SDS011;8275;48.206;16.340;2023-07-30T02:55:47;1.67;;;1.58;;
16330;SDS011;8275;48.206;16.340;2023-07-30T02:58:16;2.25;;;1.85;;
16330;SDS011;8275;48.206;16.340;2023-07-30T03:00:45;1.60;;;1.50;;
16330;SDS011;8275;48.206;16.340;2023-07-30T03:03:16;2.08;;;1.92;;
16330;SDS011;8275;48.206;16.340;2023-07-30T03:05:44;3.13;;;1.85;;
16330;SDS011;8275;48.206;16.340;2023-07-30T03:08:13;2.30;;;2.20;;
16330;SDS011;8275;48.206;16.340;2023-07-30T03:10:44;1.67;;;1.58;;
16330;SDS011;8275;48.206;16.340;2023-07-30T03:13:12;1.85;;;1.75;;
16330;SDS011;8275;48.206;16.340;2023-07-30T03:15:41;2.30;;;2.10;;
16330;SDS011;8275;48.206;16.340;2023-07-30T03:18:12;1.40;;;1.30;;
16330;SDS011;8275;48.206;16.340;2023-07-30T03:20:42;2.20;;;2.00;;
16330;SDS011;8275;48.206;16.340;2023-07-30T03:23:11;1.65;;;1.58;;
16330;SDS011;8275;48.206;16.340;2023-07-30T03:25:39;2.75;;;1.48;;
16330;SDS011;8275;48.206;16.340;2023-07-30T03:28:08;1.90;;;1.80;;
16330;SDS011;8275;48.206;16.340;2023-07-30T03:30:36;1.77;;;1.67;;
16330;SDS011;8275;48.206;16.340;2023-07-30T03:33:05;2.47;;;2.28;;
16330;SDS011;8275;48.206;16.340;2023-07-30T03:35:35;2.47;;;2.00;;
16330;SDS011;8275;48.206;16.340;2023-07-30T03:38:03;1.77;;;1.67;;
16330;SDS011;8275;48.206;16.340;2023-07-30T03:40:32;1.75;;;1.60;;
16330;SDS011;8275;48.206;16.340;2023-07-30T03:43:00;2.05;;;1.85;;
16330;SDS011;8275;48.206;16.340;2023-07-30T03:45:29;1.92;;;1.83;;
16330;SDS011;8275;48.206;16.340;2023-07-30T03:47:58;1.88;;;1.77;;
16330;SDS011;8275;48.206;16.340;2023-07-30T03:50:26;1.92;;;1.83;;
16330;SDS011;8275;48.206;16.340;2023-07-30T03:52:57;2.38;;;1.80;;
16330;SDS011;8275;48.206;16.340;2023-07-30T03:55:25;1.90;;;1.80;;
16330;SDS011;8275;48.206;16.340;2023-07-30T03:57:54;1.85;;;1.75;;
16330;SDS011;8275;48.206;16.340;2023-07-30T04:00:24;1.80;;;1.70;;
16330;SDS011;8275;48.206;16.340;2023-07-30T04:02:53;3.08;;;2.13;;
16330;SDS011;8275;48.206;16.340;2023-07-30T04:05:22;1.90;;;1.80;;
16330;SDS011;8275;48.206;16.340;2023-07-30T04:07:50;1.95;;;1.85;;
16330;SDS011;8275;48.206;16.340;2023-07-30T04:10:20;1.80;;;1.70;;
16330;SDS011;8275;48.206;16.340;2023-07-30T04:12:49;1.88;;;1.77;;
16330;SDS011;8275;48.206;16.340;2023-07-30T04:15:17;2.28;;;2.13;;
16330;SDS011;8275;48.206;16.340;2023-07-30T04:17:46;1.95;;;1.75;;
16330;SDS011;8275;48.206;16.340;2023-07-30T04:20:14;1.95;;;1.85;;
16330;SDS011;8275;48.206;16.340;2023-07-30T04:22:44;1.40;;;1.30;;
16330;SDS011;8275;48.206;16.340;2023-07-30T04:25:12;2.38;;;1.73;;
16330;SDS011;8275;48.206;16.340;2023-07-30T04:27:45;2.40;;;2.20;;
16330;SDS011;8275;48.206;16.340;2023-07-30T04:30:14;3.25;;;2.20;;
16330;SDS011;8275;48.206;16.340;2023-07-30T04:32:43;1.90;;;1.80;;
16330;SDS011;8275;48.206;16.340;2023-07-30T04:35:11;1.83;;;1.73;;
16330;SDS011;8275;48.206;16.340;2023-07-30T04:37:40;2.30;;;2.10;;
16330;SDS011;8275;48.206;16.340;2023-07-30T04:40:09;2.53;;;2.17;;
16330;SDS011;8275;48.206;16.340;2023-07-30T04:42:38;2.08;;;1.98;;
16330;SDS011;8275;48.206;16.340;2023-07-30T04:45:08;2.30;;;1.98;;
16330;SDS011;8275;48.206;16.340;2023-07-30T04:47:37;1.65;;;1.55;;
16330;SDS011;8275;48.206;16.340;2023-07-30T04:50:06;2.67;;;2.47;;
16330;SDS011;8275;48.206;16.340;2023-07-30T04:52:35;2.08;;;1.90;;
16330;SDS011;8275;48.206;16.340;2023-07-30T04:55:05;1.77;;;1.67;;
16330;SDS011;8275;48.206;16.340;2023-07-30T04:57:34;1.95;;;1.80;;
16330;SDS011;8275;48.206;16.340;2023-07-30T05:00:03;2.90;;;1.90;;
16330;SDS011;8275;48.206;16.340;2023-07-30T05:02:35;2.45;;;2.10;;
16330;SDS011;8275;48.206;16.340;2023-07-30T05:05:04;2.25;;;1.85;;
16330;SDS011;8275;48.206;16.340;2023-07-30T05:07:33;1.90;;;1.80;;
16330;SDS011;8275;48.206;16.340;2023-07-30T05:10:02;2.00;;;1.63;;
16330;SDS011;8275;48.206;16.340;2023-07-30T05:12:34;2.20;;;2.00;;
16330;SDS011;8275;48.206;16.340;2023-07-30T05:15:03;2.35;;;1.80;;
16330;SDS011;8275;48.206;16.340;2023-07-30T05:17:34;1.92;;;1.73;;
16330;SDS011;8275;48.206;16.340;2023-07-30T05:20:03;3.28;;;2.00;;
16330;SDS011;8275;48.206;16.340;2023-07-30T05:22:33;2.17;;;1.88;;
16330;SDS011;8275;48.206;16.340;2023-07-30T05:25:02;2.08;;;1.48;;
16330;SDS011;8275;48.206;16.340;2023-07-30T05:27:31;1.80;;;1.70;;
16330;SDS011;8275;48.206;16.340;2023-07-30T05:30:00;2.35;;;2.15;;
16330;SDS011;8275;48.206;16.340;2023-07-30T05:32:28;3.10;;;1.98;;
16330;SDS011;8275;48.206;16.340;2023-07-30T05:34:58;4.25;;;2.20;;
16330;SDS011;8275;48.206;16.340;2023-07-30T05:37:27;2.10;;;1.90;;
16330;SDS011;8275;48.206;16.340;2023-07-30T05:39:55;2.35;;;2.20;;
16330;SDS011;8275;48.206;16.340;2023-07-30T05:42:24;2.22;;;1.67;;
16330;SDS011;8275;48.206;16.340;2023-07-30T05:44:52;1.95;;;1.77;;
16330;SDS011;8275;48.206;16.340;2023-07-30T05:47:21;4.20;;;2.67;;
16330;SDS011;8275;48.206;16.340;2023-07-30T05:49:49;2.10;;;1.90;;
16330;SDS011;8275;48.206;16.340;2023-07-30T05:52:19;1.98;;;1.88;;
16330;SDS011;8275;48.206;16.340;2023-07-30T05:54:48;4.70;;;3.50;;
16330;SDS011;8275;48.206;16.340;2023-07-30T05:57:16;2.50;;;2.33;;
16330;SDS011;8275;48.206;16.340;2023-07-30T05:59:45;2.33;;;2.13;;
16330;SDS011;8275;48.206;16.340;2023-07-30T06:02:14;2.63;;;1.90;;
16330;SDS011;8275;48.206;16.340;2023-07-30T06:04:43;2.13;;;1.92;;
16330;SDS011;8275;48.206;16.340;2023-07-30T06:07:11;4.30;;;2.05;;
16330;SDS011;8275;48.206;16.340;2023-07-30T06:09:41;1.52;;;1.42;;
16330;SDS011;8275;48.206;16.340;2023-07-30T06:12:11;2.13;;;1.80;;
16330;SDS011;8275;48.206;16.340;2023-07-30T06:14:40;2.03;;;1.92;;
16330;SDS011;8275;48.206;16.340;2023-07-30T06:17:08;2.35;;;1.80;;
16330;SDS011;8275;48.206;16.340;2023-07-30T06:19:37;2.42;;;2.22;;
16330;SDS011;8275;48.206;16.340;2023-07-30T06:22:05;2.05;;;1.90;;
16330;SDS011;8275;48.206;16.340;2023-07-30T06:24:34;2.53;;;2.33;;
16330;SDS011;8275;48.206;16.340;2023-07-30T06:27:22;3.38;;;2.40;;
16330;SDS011;8275;48.206;16.340;2023-07-30T06:29:50;2.40;;;2.20;;
16330;SDS011;8275;48.206;16.340;2023-07-30T06:32:19;2.00;;;1.90;;
16330;SDS011;8275;48.206;16.340;2023-07-30T06:34:48;3.08;;;1.95;;
16330;SDS011;8275;48.206;16.340;2023-07-30T06:37:16;2.63;;;1.80;;
16330;SDS011;8275;48.206;16.340;2023-07-30T06:39:45;2.45;;;2.05;;
16330;SDS011;8275;48.206;16.340;2023-07-30T06:42:13;2.13;;;1.90;;
16330;SDS011;8275;48.206;16.340;2023-07-30T06:44:43;1.80;;;1.60;;
16330;SDS011;8275;48.206;16.340;2023-07-30T06:47:12;2.35;;;2.15;;
16330;SDS011;8275;48.206;16.340;2023-07-30T06:49:40;1.90;;;1.80;;
16330;SDS011;8275;48.206;16.340;2023-07-30T06:52:09;3.72;;;1.77;;
16330;SDS011;8275;48.206;16.340;2023-07-30T06:54:37;1.60;;;1.27;;
16330;SDS011;8275;48.206;16.340;2023-07-30T06:57:06;2.03;;;1.77;;
16330;SDS011;8275;48.206;16.340;2023-07-30T06:59:34;2.72;;;1.48;;
16330;SDS011;8275;48.206;16.340;2023-07-30T07:02:04;1.13;;;1.10;;
16330;SDS011;8275;48.206;16.340;2023-07-30T07:04:33;1.40;;;1.30;;
16330;SDS011;8275;48.206;16.340;2023-07-30T07:07:02;5.65;;;1.35;;
16330;SDS011;8275;48.206;16.340;2023-07-30T07:09:31;5.75;;;1.05;;
16330;SDS011;8275;48.206;16.340;2023-07-30T07:11:59;8.68;;;1.50;;
16330;SDS011;8275;48.206;16.340;2023-07-30T07:14:28;1.77;;;0.98;;
16330;SDS011;8275;48.206;16.340;2023-07-30T07:16:56;1.20;;;1.10;;
16330;SDS011;8275;48.206;16.340;2023-07-30T07:19:26;1.10;;;1.00;;
16330;SDS011;8275;48.206;16.340;2023-07-30T07:21:55;2.63;;;1.40;;
16330;SDS011;8275;48.206;16.340;2023-07-30T07:24:23;1.70;;;1.35;;
16330;SDS011;8275;48.206;16.340;2023-07-30T07:26:52;2.30;;;1.55;;
16330;SDS011;8275;48.206;16.340;2023-07-30T07:29:21;1.55;;;1.13;;
16330;SDS011;8275;48.206;16.340;2023-07-30T07:31:49;1.55;;;1.45;;
16330;SDS011;8275;48.206;16.340;2023-07-30T07:34:18;2.05;;;1.20;;
16330;SDS011;8275;48.206;16.340;2023-07-30T07:36:48;1.55;;;1.45;;
16330;SDS011;8275;48.206;16.340;2023-07-30T07:39:16;1.52;;;1.25;;
16330;SDS011;8275;48.206;16.340;2023-07-30T07:41:45;1.20;;;1.17;;
16330;SDS011;8275;48.206;16.340;2023-07-30T07:44:14;1.98;;;1.10;;
16330;SDS011;8275;48.206;16.340;2023-07-30T07:46:42;1.50;;;1.40;;
16330;SDS011;8275;48.206;16.340;2023-07-30T07:49:11;1.42;;;1.33;;
16330;SDS011;8275;48.206;16.340;2023-07-30T07:51:39;1.75;;;1.58;;
16330;SDS011;8275;48.206;16.340;2023-07-30T07:54:09;1.48;;;1.10;;
16330;SDS011;8275;48.206;16.340;2023-07-30T07:56:38;1.48;;;1.38;;
16330;SDS011;8275;48.206;16.340;2023-07-30T07:59:07;1.42;;;1.33;;
16330;SDS011;8275;48.206;16.340;2023-07-30T08:01:35;1.05;;;1.05;;
16330;SDS011;8275;48.206;16.340;2023-07-30T08:04:04;1.85;;;1.63;;
16330;SDS011;8275;48.206;16.340;2023-07-30T08:06:33;1.50;;;1.23;;
16330;SDS011;8275;48.206;16.340;2023-07-30T08:09:01;1.50;;;1.40;;
16330;SDS011;8275;48.206;16.340;2023-07-30T08:11:32;1.40;;;1.35;;
16330;SDS011;8275;48.206;16.340;2023-07-30T08:14:02;1.67;;;1.58;;
16330;SDS011;8275;48.206;16.340;2023-07-30T08:16:30;3.00;;;1.63;;
16330;SDS011;8275;48.206;16.340;2023-07-30T08:18:59;2.45;;;1.95;;
16330;SDS011;8275;48.206;16.340;2023-07-30T08:21:27;2.50;;;1.55;;
16330;SDS011;8275;48.206;16.340;2023-07-30T08:23:56;1.90;;;1.80;;
16330;SDS011;8275;48.206;16.340;2023-07-30T08:26:24;1.80;;;1.70;;
16330;SDS011;8275;48.206;16.340;2023-07-30T08:28:54;2.53;;;1.67;;
16330;SDS011;8275;48.206;16.340;2023-07-30T08:31:23;2.03;;;1.92;;
16330;SDS011;8275;48.206;16.340;2023-07-30T08:33:52;1.88;;;1.70;;
16330;SDS011;8275;48.206;16.340;2023-07-30T08:36:20;1.70;;;1.60;;
16330;SDS011;8275;48.206;16.340;2023-07-30T08:38:49;2.05;;;1.92;;
16330;SDS011;8275;48.206;16.340;2023-07-30T08:41:18;2.25;;;2.08;;
16330;SDS011;8275;48.206;16.340;2023-07-30T08:43:46;2.00;;;1.90;;
16330;SDS011;8275;48.206;16.340;2023-07-30T08:46:16;3.20;;;2.10;;
16330;SDS011;8275;48.206;16.340;2023-07-30T08:48:45;2.35;;;1.85;;
16330;SDS011;8275;48.206;16.340;2023-07-30T08:51:20;1.80;;;1.70;;
16330;SDS011;8275;48.206;16.340;2023-07-30T08:53:51;3.20;;;2.28;;
16330;SDS011;8275;48.206;16.340;2023-07-30T08:56:20;2.13;;;1.92;;
16330;SDS011;8275;48.206;16.340;2023-07-30T08:58:49;1.88;;;1.77;;
16330;SDS011;8275;48.206;16.340;2023-07-30T09:01:21;2.30;;;2.20;;
16330;SDS011;8275;48.206;16.340;2023-07-30T09:03:50;2.97;;;1.92;;
16330;SDS011;8275;48.206;16.340;2023-07-30T09:06:20;2.35;;;2.08;;
16330;SDS011;8275;48.206;16.340;2023-07-30T09:08:49;2.53;;;2.33;;
16330;SDS011;8275;48.206;16.340;2023-07-30T09:11:17;2.20;;;2.05;;
16330;SDS011;8275;48.206;16.340;2023-07-30T09:13:46;2.05;;;1.95;;
16330;SDS011;8275;48.206;16.340;2023-07-30T09:16:15;2.22;;;2.03;;
16330;SDS011;8275;48.206;16.340;2023-07-30T09:18:45;2.88;;;2.58;;
16330;SDS011;8275;48.206;16.340;2023-07-30T09:21:17;2.08;;;1.95;;
16330;SDS011;8275;48.206;16.340;2023-07-30T09:23:46;2.22;;;1.58;;
16330;SDS011;8275;48.206;16.340;2023-07-30T09:26:15;3.90;;;2.58;;
16330;SDS011;8275;48.206;16.340;2023-07-30T09:28:44;2.22;;;2.13;;
16330;SDS011;8275;48.206;16.340;2023-07-30T09:31:12;2.13;;;2.00;;
16330;SDS011;8275;48.206;16.340;2023-07-30T09:33:49;2.22;;;2.03;;
16330;SDS011;8275;48.206;16.340;2023-07-30T09:36:18;1.90;;;1.80;;
16330;SDS011;8275;48.206;16.340;2023-07-30T09:38:47;2.47;;;2.28;;
16330;SDS011;8275;48.206;16.340;2023-07-30T09:41:16;2.25;;;2.05;;
16330;SDS011;8275;48.206;16.340;2023-07-30T09:43:45;2.30;;;2.13;;
16330;SDS011;8275;48.206;16.340;2023-07-30T09:46:13;1.88;;;1.77;;
16330;SDS011;8275;48.206;16.340;2023-07-30T09:48:42;1.90;;;1.75;;
16330;SDS011;8275;48.206;16.340;2023-07-30T09:51:12;1.60;;;1.50;;
16330;SDS011;8275;48.206;16.340;2023-07-30T09:53:42;3.92;;;1.70;;
16330;SDS011;8275;48.206;16.340;2023-07-30T09:56:10;1.83;;;1.70;;
16330;SDS011;8275;48.206;16.340;2023-07-30T09:58:39;3.08;;;2.28;;
16330;SDS011;8275;48.206;16.340;2023-07-30T10:01:08;1.38;;;1.27;;
16330;SDS011;8275;48.206;16.340;2023-07-30T10:03:37;1.55;;;1.45;;
16330;SDS011;8275;48.206;16.340;2023-07-30T10:06:06;2.30;;;1.67;;
16330;SDS011;8275;48.206;16.340;2023-07-30T10:08:37;1.50;;;1.40;;
16330;SDS011;8275;48.206;16.340;2023-07-30T10:11:08;1.38;;;1.27;;
16330;SDS011;8275;48.206;16.340;2023-07-30T10:13:39;1.67;;;1.58;;
16330;SDS011;8275;48.206;16.340;2023-07-30T10:16:09;1.98;;;1.88;;
16330;SDS011;8275;48.206;16.340;2023-07-30T10:18:38;2.60;;;2.40;;
16330;SDS011;8275;48.206;16.340;2023-07-30T10:21:08;1.60;;;1.50;;
16330;SDS011;8275;48.206;16.340;2023-07-30T10:23:46;2.05;;;1.95;;
16330;SDS011;8275;48.206;16.340;2023-07-30T10:26:29;2.30;;;2.08;;
16330;SDS011;8275;48.206;16.340;2023-07-30T10:29:09;2.45;;;2.35;;
16330;SDS011;8275;48.206;16.340;2023-07-30T10:31:40;1.60;;;1.50;;
16330;SDS011;8275;48.206;16.340;2023-07-30T10:34:10;1.70;;;1.60;;
16330;SDS011;8275;48.206;16.340;2023-07-30T10:36:42;1.83;;;1.40;;
16330;SDS011;8275;48.206;16.340;2023-07-30T10:39:14;1.95;;;1.70;;
16330;SDS011;8275;48.206;16.340;2023-07-30T10:41:45;1.88;;;1.77;;
16330;SDS011;8275;48.206;16.340;2023-07-30T10:44:17;2.05;;;1.67;;
16330;SDS011;8275;48.206;16.340;2023-07-30T10:46:49;2.72;;;2.53;;
16330;SDS011;8275;48.206;16.340;2023-07-30T10:49:18;2.22;;;2.03;;
16330;SDS011;8275;48.206;16.340;2023-07-30T10:51:47;11.27;;;3.65;;
16330;SDS011;8275;48.206;16.340;2023-07-30T10:54:19;5.47;;;4.18;;
16330;SDS011;8275;48.206;16.340;2023-07-30T10:56:48;4.07;;;2.63;;
16330;SDS011;8275;48.206;16.340;2023-07-30T10:59:17;2.47;;;2.28;;
16330;SDS011;8275;48.206;16.340;2023-07-30T11:01:46;2.78;;;2.58;;
16330;SDS011;8275;48.206;16.340;2023-07-30T11:04:15;2.50;;;2.30;;
16330;SDS011;8275;48.206;16.340;2023-07-30T11:06:45;2.47;;;2.28;;
16330;SDS011;8275;48.206;16.340;2023-07-30T11:09:19;3.38;;;2.67;;
16330;SDS011;8275;48.206;16.340;2023-07-30T11:11:49;2.85;;;2.65;;
16330;SDS011;8275;48.206;16.340;2023-07-30T11:14:20;2.55;;;2.35;;
16330;SDS011;8275;48.206;16.340;2023-07-30T11:16:52;2.42;;;2.33;;
16330;SDS011;8275;48.206;16.340;2023-07-30T11:19:24;3.63;;;2.70;;
16330;SDS011;8275;48.206;16.340;2023-07-30T11:21:54;2.40;;;2.20;;
16330;SDS011;8275;48.206;16.340;2023-07-30T11:24:34;3.03;;;2.83;;
16330;SDS011;8275;48.206;16.340;2023-07-30T11:27:03;2.05;;;1.95;;
16330;SDS011;8275;48.206;16.340;2023-07-30T11:29:32;2.25;;;2.05;;
16330;SDS011;8275;48.206;16.340;2023-07-30T11:32:01;3.05;;;1.80;;
16330;SDS011;8275;48.206;16.340;2023-07-30T11:34:30;4.93;;;2.38;;
16330;SDS011;8275;48.206;16.340;2023-07-30T11:37:02;3.90;;;3.60;;
16330;SDS011;8275;48.206;16.340;2023-07-30T11:39:34;2.85;;;1.90;;
16330;SDS011;8275;48.206;16.340;2023-07-30T11:42:03;3.22;;;1.83;;
16330;SDS011;8275;48.206;16.340;2023-07-30T11:44:34;2.25;;;1.40;;
16330;SDS011;8275;48.206;16.340;2023-07-30T11:47:05;5.97;;;2.15;;
16330;SDS011;8275;48.206;16.340;2023-07-30T11:49:35;1.35;;;1.25;;
16330;SDS011;8275;48.206;16.340;2023-07-30T11:52:05;1.40;;;1.30;;
16330;SDS011;8275;48.206;16.340;2023-07-30T11:54:36;1.60;;;1.50;;
16330;SDS011;8275;48.206;16.340;2023-07-30T11:57:05;1.60;;;1.38;;
16330;SDS011;8275;48.206;16.340;2023-07-30T11:59:34;2.17;;;1.80;;
16330;SDS011;8275;48.206;16.340;2023-07-30T12:02:03;1.45;;;1.35;;
16330;SDS011;8275;48.206;16.340;2023-07-30T12:04:42;1.88;;;1.77;;
16330;SDS011;8275;48.206;16.340;2023-07-30T12:07:22;1.98;;;1.88;;
16330;SDS011;8275;48.206;16.340;2023-07-30T12:09:53;3.28;;;1.65;;
16330;SDS011;8275;48.206;16.340;2023-07-30T12:12:24;1.20;;;1.20;;
16330;SDS011;8275;48.206;16.340;2023-07-30T12:14:54;1.65;;;1.55;;
16330;SDS011;8275;48.206;16.340;2023-07-30T12:17:22;1.67;;;1.58;;
16330;SDS011;8275;48.206;16.340;2023-07-30T12:19:51;1.50;;;1.40;;
16330;SDS011;8275;48.206;16.340;2023-07-30T12:22:20;1.50;;;1.40;;
16330;SDS011;8275;48.206;16.340;2023-07-30T12:24:48;1.98;;;1.88;;
16330;SDS011;8275;48.206;16.340;2023-07-30T12:27:18;1.90;;;1.80;;
16330;SDS011;8275;48.206;16.340;2023-07-30T12:29:47;2.00;;;1.80;;
16330;SDS011;8275;48.206;16.340;2023-07-30T12:32:15;2.28;;;2.10;;
16330;SDS011;8275;48.206;16.340;2023-07-30T12:34:44;1.90;;;1.80;;
16330;SDS011;8275;48.206;16.340;2023-07-30T12:37:13;1.98;;;1.88;;
16330;SDS011;8275;48.206;16.340;2023-07-30T12:39:41;2.40;;;2.20;;
16330;SDS011;8275;48.206;16.340;2023-07-30T12:42:10;1.90;;;1.80;;
16330;SDS011;8275;48.206;16.340;2023-07-30T12:44:40;1.85;;;1.70;;
16330;SDS011;8275;48.206;16.340;2023-07-30T12:47:08;1.23;;;1.13;;
16330;SDS011;8275;48.206;16.340;2023-07-30T12:49:37;1.52;;;1.40;;
16330;SDS011;8275;48.206;16.340;2023-07-30T12:52:06;2.05;;;1.80;;
16330;SDS011;8275;48.206;16.340;2023-07-30T12:54:34;3.83;;;2.30;;
16330;SDS011;8275;48.206;16.340;2023-07-30T12:57:03;1.67;;;1.58;;
16330;SDS011;8275;48.206;16.340;2023-07-30T12:59:33;2.03;;;1.88;;
16330;SDS011;8275;48.206;16.340;2023-07-30T13:02:04;4.07;;;3.78;;
16330;SDS011;8275;48.206;16.340;2023-07-30T13:04:34;1.83;;;1.73;;
16330;SDS011;8275;48.206;16.340;2023-07-30T13:07:04;1.60;;;1.50;;
16330;SDS011;8275;48.206;16.340;2023-07-30T13:09:34;1.52;;;1.42;;
16330;SDS011;8275;48.206;16.340;2023-07-30T13:12:04;1.75;;;1.65;;
16330;SDS011;8275;48.206;16.340;2023-07-30T13:14:35;1.92;;;1.20;;
16330;SDS011;8275;48.206;16.340;2023-07-30T13:17:07;1.42;;;1.33;;
16330;SDS011;8275;48.206;16.340;2023-07-30T13:19:36;1.77;;;1.67;;
16330;SDS011;8275;48.206;16.340;2023-07-30T13:22:05;1.20;;;1.20;;
16330;SDS011;8275;48.206;16.340;2023-07-30T13:24:34;1.00;;;0.88;;
16330;SDS011;8275;48.206;16.340;2023-07-30T13:27:03;1.38;;;1.27;;
16330;SDS011;8275;48.206;16.340;2023-07-30T13:29:34;1.63;;;1.52;;
16330;SDS011;8275;48.206;16.340;2023-07-30T13:32:05;1.55;;;1.48;;
16330;SDS011;8275;48.206;16.340;2023-07-30T13:34:38;1.70;;;1.60;;
16330;SDS011;8275;48.206;16.340;2023-07-30T13:37:09;1.02;;;1.00;;
16330;SDS011;8275;48.206;16.340;2023-07-30T13:39:39;1.40;;;1.30;;
16330;SDS011;8275;48.206;16.340;2023-07-30T13:42:08;1.60;;;1.50;;
16330;SDS011;8275;48.206;16.340;2023-07-30T13:44:37;1.10;;;1.10;;
16330;SDS011;8275;48.206;16.340;2023-07-30T13:47:08;1.45;;;1.35;;
16330;SDS011;8275;48.206;16.340;2023-07-30T13:49:40;1.67;;;1.58;;
16330;SDS011;8275;48.206;16.340;2023-07-30T13:52:11;3.33;;;3.13;;
16330;SDS011;8275;48.206;16.340;2023-07-30T13:54:40;2.88;;;2.63;;
16330;SDS011;8275;48.206;16.340;2023-07-30T13:57:12;7.70;;;3.28;;
16330;SDS011;8275;48.206;16.340;2023-07-30T13:59:49;1.20;;;1.10;;
16330;SDS011;8275;48.206;16.340;2023-07-30T14:02:20;1.67;;;1.58;;
16330;SDS011;8275;48.206;16.340;2023-07-30T14:04:50;2.20;;;2.10;;
16330;SDS011;8275;48.206;16.340;2023-07-30T14:07:21;4.53;;;4.13;;
16330;SDS011;8275;48.206;16.340;2023-07-30T14:09:50;5.55;;;5.05;;
16330;SDS011;8275;48.206;16.340;2023-07-30T14:12:20;8.90;;;7.30;;
16330;SDS011;8275;48.206;16.340;2023-07-30T14:14:50;6.55;;;5.65;;
16330;SDS011;8275;48.206;16.340;2023-07-30T14:17:22;4.65;;;4.22;;
16330;SDS011;8275;48.206;16.340;2023-07-30T14:19:51;3.85;;;3.45;;
16330;SDS011;8275;48.206;16.340;2023-07-30T14:22:22;3.25;;;2.95;;
16330;SDS011;8275;48.206;16.340;2023-07-30T14:24:51;2.80;;;2.40;;
16330;SDS011;8275;48.206;16.340;2023-07-30T14:27:21;2.20;;;1.80;;
16330;SDS011;8275;48.206;16.340;2023-07-30T14:29:51;1.92;;;1.83;;
16330;SDS011;8275;48.206;16.340;2023-07-30T14:32:20;2.75;;;2.38;;
16330;SDS011;8275;48.206;16.340;2023-07-30T14:34:51;3.85;;;3.55;;
16330;SDS011;8275;48.206;16.340;2023-07-30T14:37:20;6.03;;;3.72;;
16330;SDS011;8275;48.206;16.340;2023-07-30T14:39:49;4.13;;;2.17;;
16330;SDS011;8275;48.206;16.340;2023-07-30T14:42:18;4.28;;;2.97;;
16330;SDS011;8275;48.206;16.340;2023-07-30T14:44:47;3.80;;;3.45;;
16330;SDS011;8275;48.206;16.340;2023-07-30T14:47:16;3.00;;;2.58;;
16330;SDS011;8275;48.206;16.340;2023-07-30T14:49:50;4.38;;;3.30;;
16330;SDS011;8275;48.206;16.340;2023-07-30T14:52:18;3.80;;;2.95;;
16330;SDS011;8275;48.206;16.340;2023-07-30T14:54:47;2.83;;;2.08;;
16330;SDS011;8275;48.206;16.340;2023-07-30T14:57:16;5.68;;;2.63;;
16330;SDS011;8275;48.206;16.340;2023-07-30T14:59:45;26.48;;;5.68;;
16330;SDS011;8275;48.206;16.340;2023-07-30T15:02:15;2.85;;;1.98;;